createdAt,value
2018-03-15T00:02:03.669Z,12.13
2018-03-15T00:04:37.310Z,9.17
2018-03-15T00:07:10.990Z,9.97
2018-03-15T00:09:44.550Z,10.80
2018-03-15T00:12:18.306Z,12.53
2018-03-15T00:14:51.918Z,11.70
2018-03-15T00:17:25.458Z,10.90
2018-03-15T00:19:59.082Z,12.10
2018-03-15T00:22:32.671Z,12.57
2018-03-15T00:25:06.254Z,11.80
2018-03-15T00:27:40.027Z,10.83
2018-03-15T00:30:13.835Z,11.33
2018-03-15T00:32:47.483Z,13.13
2018-03-15T00:35:21.042Z,12.30
2018-03-15T00:37:54.651Z,11.73
2018-03-15T00:40:28.278Z,10.90
2018-03-15T00:43:01.855Z,11.73
2018-03-15T00:45:35.699Z,11.93
2018-03-15T00:48:09.190Z,12.27
2018-03-15T00:50:42.776Z,12.37
2018-03-15T00:53:16.483Z,11.60
2018-03-15T00:55:50.263Z,12.17
2018-03-15T00:58:23.854Z,11.47
2018-03-15T01:00:57.627Z,13.13
2018-03-15T01:03:31.318Z,11.37
2018-03-15T01:06:05.009Z,12.10
2018-03-15T01:08:38.777Z,11.47
2018-03-15T01:11:12.362Z,11.77
2018-03-15T01:13:46.015Z,12.33
2018-03-15T01:16:19.664Z,11.83
2018-03-15T01:18:53.231Z,12.37
2018-03-15T01:21:26.823Z,12.90
2018-03-15T01:24:00.511Z,12.27
2018-03-15T01:26:34.400Z,11.43
2018-03-15T01:29:07.970Z,12.53
2018-03-15T01:31:41.527Z,13.03
2018-03-15T01:34:15.186Z,11.50
2018-03-15T01:36:48.794Z,10.17
2018-03-15T01:39:22.550Z,10.87
2018-03-15T01:41:56.254Z,11.60
2018-03-15T01:44:30.011Z,12.70
2018-03-15T01:47:03.786Z,12.80
2018-03-15T01:49:37.427Z,11.77
2018-03-15T01:52:10.963Z,10.67
2018-03-15T01:54:44.644Z,11.80
2018-03-15T01:57:18.423Z,11.53
2018-03-15T01:59:52.021Z,11.67
2018-03-15T02:02:25.813Z,9.03
2018-03-15T02:04:59.475Z,11.53
2018-03-15T02:07:33.239Z,10.37
2018-03-15T02:10:07.074Z,9.43
2018-03-15T02:12:40.841Z,10.93
2018-03-15T02:15:14.523Z,12.43
2018-03-15T02:17:48.066Z,9.93
2018-03-15T02:20:21.715Z,12.30
2018-03-15T02:22:55.398Z,9.47
2018-03-15T02:25:28.991Z,11.57
2018-03-15T02:28:02.558Z,10.80
2018-03-15T02:30:36.416Z,10.37
2018-03-15T02:33:10.145Z,10.17
2018-03-15T02:35:43.865Z,12.67
2018-03-15T02:38:17.631Z,10.60
2018-03-15T02:40:51.346Z,11.90
2018-03-15T02:43:25.004Z,10.77
2018-03-15T02:45:58.719Z,10.40
2018-03-15T02:48:32.549Z,11.13
2018-03-15T02:51:06.330Z,10.73
2018-03-15T02:53:40.008Z,11.10
2018-03-15T02:56:13.588Z,10.37
2018-03-15T02:58:47.260Z,10.77
2018-03-15T03:01:20.869Z,10.80
2018-03-15T03:03:54.595Z,10.73
2018-03-15T03:06:28.277Z,9.77
2018-03-15T03:09:01.908Z,6.50
2018-03-15T03:11:35.529Z,10.07
2018-03-15T03:14:09.165Z,10.20
2018-03-15T03:16:42.815Z,10.63
2018-03-15T03:19:16.605Z,9.03
2018-03-15T03:21:50.326Z,9.87
2018-03-15T03:24:23.975Z,10.07
2018-03-15T03:26:57.544Z,9.20
2018-03-15T03:29:31.096Z,9.90
2018-03-15T03:32:04.692Z,10.63
2018-03-15T03:34:38.261Z,9.20
2018-03-15T03:37:11.845Z,9.60
2018-03-15T03:39:45.464Z,10.23
2018-03-15T03:42:19.003Z,10.83
2018-03-15T03:44:52.974Z,9.67
2018-03-15T03:47:27.013Z,9.97
2018-03-15T03:50:00.622Z,10.53
2018-03-15T03:52:34.241Z,10.47
2018-03-15T03:55:07.915Z,9.07
2018-03-15T03:57:41.483Z,11.20
2018-03-15T04:00:15.050Z,9.53
2018-03-15T04:02:49.134Z,10.77
2018-03-15T04:05:22.776Z,9.43
2018-03-15T04:07:56.473Z,9.90
2018-03-15T04:10:30.078Z,7.77
2018-03-15T04:13:03.829Z,10.50
2018-03-15T04:15:37.441Z,10.37
2018-03-15T04:18:11.082Z,8.27
2018-03-15T04:20:44.753Z,10.20
2018-03-15T04:23:18.425Z,9.97
2018-03-15T04:25:52.228Z,9.40
2018-03-15T04:28:25.753Z,7.87
2018-03-15T04:30:59.350Z,9.47
2018-03-15T04:33:32.953Z,9.47
2018-03-15T04:36:06.543Z,9.50
2018-03-15T04:38:40.125Z,10.20
2018-03-15T04:41:13.876Z,8.87
2018-03-15T04:43:47.558Z,10.07
2018-03-15T04:46:21.146Z,10.30
2018-03-15T04:48:54.829Z,10.13
2018-03-15T04:51:28.445Z,10.10
2018-03-15T04:54:02.109Z,10.43
2018-03-15T04:56:35.852Z,9.93
2018-03-15T04:59:09.452Z,9.37
2018-03-15T05:01:43.050Z,9.67
2018-03-15T05:04:16.709Z,9.23
2018-03-15T05:06:50.435Z,9.90
2018-03-15T05:09:24.013Z,7.17
2018-03-15T05:11:57.526Z,8.73
2018-03-15T05:14:31.254Z,9.47
2018-03-15T05:17:04.795Z,9.50
2018-03-15T05:19:38.426Z,8.40
2018-03-15T05:22:12.017Z,9.13
2018-03-15T05:24:45.660Z,9.20
2018-03-15T05:27:19.578Z,9.13
2018-03-15T05:29:53.170Z,9.83
2018-03-15T05:32:26.765Z,9.43
2018-03-15T05:35:00.462Z,9.57
2018-03-15T05:37:34.110Z,10.07
2018-03-15T05:40:07.751Z,9.73
2018-03-15T05:42:41.282Z,9.03
2018-03-15T05:45:14.816Z,8.83
2018-03-15T05:47:48.649Z,10.13
2018-03-15T05:50:22.294Z,9.33
2018-03-15T05:52:55.898Z,9.20
2018-03-15T05:55:29.496Z,7.60
2018-03-15T05:58:03.009Z,9.43
2018-03-15T06:00:36.680Z,8.90
2018-03-15T06:03:10.236Z,8.47
2018-03-15T06:05:44.018Z,8.17
2018-03-15T06:08:17.630Z,8.33
2018-03-15T06:10:51.409Z,8.70
2018-03-15T06:13:25.016Z,8.57
2018-03-15T06:15:58.698Z,9.23
2018-03-15T06:18:32.283Z,6.87
2018-03-15T06:21:05.882Z,8.17
2018-03-15T06:23:39.474Z,8.70
2018-03-15T06:26:13.022Z,9.37
2018-03-15T06:28:46.584Z,8.27
2018-03-15T06:31:20.204Z,9.77
2018-03-15T06:33:53.818Z,8.47
2018-03-15T06:36:27.533Z,7.47
2018-03-15T06:39:01.191Z,8.73
2018-03-15T06:41:34.707Z,8.77
2018-03-15T06:44:08.365Z,8.83
2018-03-15T06:46:41.998Z,9.40
2018-03-15T06:49:15.628Z,8.87
2018-03-15T06:51:49.078Z,6.17
2018-03-15T06:54:22.594Z,7.73
2018-03-15T06:56:56.175Z,8.23
2018-03-15T06:59:29.826Z,9.03
2018-03-15T07:02:03.391Z,7.87
2018-03-15T07:04:37.056Z,8.63
2018-03-15T07:07:10.738Z,9.30
2018-03-15T07:09:44.305Z,7.97
2018-03-15T07:12:17.984Z,8.10
2018-03-15T07:14:51.614Z,8.87
2018-03-15T07:17:25.334Z,6.33
2018-03-15T07:19:58.835Z,7.00
2018-03-15T07:22:32.622Z,7.83
2018-03-15T07:25:06.269Z,6.30
2018-03-15T07:27:39.789Z,6.97
2018-03-15T07:30:13.454Z,8.37
2018-03-15T07:32:47.014Z,8.47
2018-03-15T07:35:20.649Z,8.67
2018-03-15T07:37:54.209Z,7.77
2018-03-15T07:40:27.914Z,7.77
2018-03-15T07:43:01.448Z,8.37
2018-03-15T07:45:35.073Z,7.33
2018-03-15T07:48:08.630Z,7.20
2018-03-15T07:50:42.157Z,8.33
2018-03-15T07:53:16.084Z,4.80
2018-03-15T07:55:49.623Z,8.07
2018-03-15T07:58:23.440Z,7.07
2018-03-15T08:00:57.116Z,6.13
2018-03-15T08:03:30.704Z,6.93
2018-03-15T08:06:04.471Z,7.23
2018-03-15T08:08:38.110Z,7.63
2018-03-15T08:11:11.633Z,7.57
2018-03-15T08:13:45.232Z,6.53
2018-03-15T08:16:18.855Z,7.20
2018-03-15T08:18:52.488Z,7.00
2018-03-15T08:21:26.113Z,7.77
2018-03-15T08:23:59.670Z,8.27
2018-03-15T08:26:33.223Z,7.30
2018-03-15T08:29:06.846Z,6.47
2018-03-15T08:31:40.410Z,6.37
2018-03-15T08:34:14.068Z,7.23
2018-03-15T08:36:47.601Z,7.43
2018-03-15T08:39:21.229Z,7.50
2018-03-15T08:41:54.958Z,6.80
2018-03-15T08:44:28.552Z,6.43
2018-03-15T08:47:02.373Z,7.53
2018-03-15T08:49:35.914Z,7.03
2018-03-15T08:52:09.438Z,6.07
2018-03-15T08:54:43.080Z,6.83
2018-03-15T08:57:16.714Z,6.90
2018-03-15T08:59:50.246Z,7.00
2018-03-15T09:02:24.042Z,6.93
2018-03-15T09:04:57.611Z,6.80
2018-03-15T09:07:31.270Z,6.57
2018-03-15T09:10:05.054Z,6.50
2018-03-15T09:12:38.630Z,6.53
2018-03-15T09:15:12.772Z,6.30
2018-03-15T09:17:46.257Z,7.37
2018-03-15T09:20:19.954Z,6.50
2018-03-15T09:22:53.418Z,7.00
2018-03-15T09:25:27.296Z,5.87
2018-03-15T09:28:00.864Z,6.70
2018-03-15T09:30:34.735Z,6.37
2018-03-15T09:33:08.356Z,6.10
2018-03-15T09:35:41.981Z,6.13
2018-03-15T09:38:15.615Z,7.10
2018-03-15T09:40:49.365Z,7.10
2018-03-15T09:43:23.057Z,6.10
2018-03-15T09:45:56.869Z,6.63
2018-03-15T09:48:30.326Z,5.60
2018-03-15T09:51:04.138Z,6.30
2018-03-15T09:53:37.713Z,7.00
2018-03-15T09:56:11.480Z,6.80
2018-03-15T09:58:45.265Z,6.17
2018-03-15T10:01:19.119Z,6.30
2018-03-15T10:03:52.972Z,6.53
2018-03-15T10:06:26.622Z,6.03
2018-03-15T10:09:00.238Z,6.03
2018-03-15T10:11:33.790Z,6.00
2018-03-15T10:14:07.513Z,6.10
2018-03-15T10:16:41.192Z,6.53
2018-03-15T10:19:14.865Z,5.47
2018-03-15T10:21:48.727Z,5.50
2018-03-15T10:24:22.415Z,6.47
2018-03-15T10:26:56.200Z,5.63
2018-03-15T10:29:29.873Z,4.50
2018-03-15T10:32:03.665Z,5.33
2018-03-15T10:34:37.367Z,5.40
2018-03-15T10:37:11.179Z,5.83
2018-03-15T10:39:44.832Z,5.57
2018-03-15T10:42:18.356Z,4.93
2018-03-15T10:44:51.937Z,5.03
2018-03-15T10:47:25.630Z,5.67
2018-03-15T10:49:59.361Z,5.33
2018-03-15T10:52:33.146Z,5.63
2018-03-15T10:55:06.674Z,5.00
2018-03-15T10:57:40.226Z,5.93
2018-03-15T11:00:13.981Z,5.57
2018-03-15T11:02:48.220Z,5.47
2018-03-15T11:05:27.547Z,5.20
2018-03-15T11:08:07.005Z,5.17
2018-03-15T11:10:40.681Z,4.93
2018-03-15T11:13:14.338Z,5.23
2018-03-15T11:15:47.922Z,5.33
2018-03-15T11:18:21.645Z,5.10
2018-03-15T11:20:55.390Z,4.57
2018-03-15T11:23:28.913Z,5.03
2018-03-15T11:26:02.526Z,4.93
2018-03-15T11:28:36.261Z,4.60
2018-03-15T11:31:10.019Z,5.30
2018-03-15T11:33:43.485Z,5.00
2018-03-15T11:36:17.170Z,4.53
2018-03-15T11:38:50.750Z,4.33
2018-03-15T11:41:24.361Z,4.73
2018-03-15T11:43:58.152Z,4.73
2018-03-15T11:46:31.922Z,4.93
2018-03-15T11:49:05.645Z,4.33
2018-03-15T11:51:39.238Z,4.90
2018-03-15T11:54:13.047Z,4.43
2018-03-15T11:56:46.621Z,4.90
2018-03-15T11:59:20.453Z,4.47
2018-03-15T12:01:54.105Z,4.57
2018-03-15T12:04:27.864Z,4.77
2018-03-15T12:07:01.377Z,4.97
2018-03-15T12:09:35.149Z,4.33
2018-03-15T12:12:08.871Z,4.60
2018-03-15T12:14:42.440Z,4.60
2018-03-15T12:17:16.122Z,4.30
2018-03-15T12:19:49.746Z,4.67
2018-03-15T12:22:23.297Z,4.67
2018-03-15T12:24:56.805Z,4.23
2018-03-15T12:27:30.525Z,4.50
2018-03-15T12:30:04.282Z,4.07
2018-03-15T12:32:37.894Z,4.37
2018-03-15T12:35:11.399Z,5.27
2018-03-15T12:37:44.940Z,4.40
2018-03-15T12:40:18.491Z,4.60
2018-03-15T12:42:52.252Z,4.53
2018-03-15T12:45:26.002Z,4.30
2018-03-15T12:47:59.533Z,4.20
2018-03-15T12:50:33.189Z,4.57
2018-03-15T12:53:06.790Z,5.17
2018-03-15T12:55:40.634Z,4.03
2018-03-15T12:58:14.430Z,5.03
2018-03-15T13:00:48.091Z,4.00
2018-03-15T13:03:21.622Z,3.87
2018-03-15T13:05:55.274Z,4.33
2018-03-15T13:08:28.954Z,4.47
2018-03-15T13:11:02.613Z,4.60
2018-03-15T13:13:36.248Z,4.50
2018-03-15T13:16:09.902Z,4.10
2018-03-15T13:18:43.499Z,4.30
2018-03-15T13:21:17.280Z,3.77
2018-03-15T13:23:50.999Z,4.43
2018-03-15T13:26:24.782Z,4.07
2018-03-15T13:28:58.323Z,4.07
2018-03-15T13:31:31.854Z,4.30
2018-03-15T13:34:05.694Z,4.47
2018-03-15T13:36:39.330Z,4.67
2018-03-15T13:39:12.926Z,4.70
2018-03-15T13:41:46.478Z,5.60
2018-03-15T13:44:20.583Z,4.83
2018-03-15T13:46:54.268Z,5.23
2018-03-15T13:49:27.961Z,5.47
2018-03-15T13:52:01.730Z,5.10
2018-03-15T13:54:35.524Z,5.03
2018-03-15T13:57:09.084Z,5.30
2018-03-15T13:59:42.633Z,5.37
2018-03-15T14:02:16.198Z,5.37
2018-03-15T14:04:49.708Z,4.63
2018-03-15T14:07:23.189Z,4.60
2018-03-15T14:09:56.766Z,5.03
2018-03-15T14:12:30.368Z,4.93
2018-03-15T14:15:03.909Z,4.57
2018-03-15T14:17:37.620Z,4.97
2018-03-15T14:20:11.472Z,4.60
2018-03-15T14:22:44.970Z,5.70
2018-03-15T14:25:18.477Z,4.47
2018-03-15T14:27:52.020Z,4.90
2018-03-15T14:30:25.766Z,4.50
2018-03-15T14:32:59.570Z,4.77
2018-03-15T14:35:33.158Z,4.40
2018-03-15T14:38:06.804Z,5.13
2018-03-15T14:40:40.546Z,4.37
2018-03-15T14:43:14.178Z,4.67
2018-03-15T14:45:47.866Z,5.00
2018-03-15T14:48:21.417Z,5.00
2018-03-15T14:50:54.956Z,4.37
2018-03-15T14:53:28.500Z,4.60
2018-03-15T14:56:02.040Z,4.93
2018-03-15T14:58:35.646Z,4.53
2018-03-15T15:01:09.443Z,4.43
2018-03-15T15:03:42.994Z,4.50
2018-03-15T15:06:16.829Z,4.17
2018-03-15T15:08:50.486Z,4.47
2018-03-15T15:11:24.042Z,4.13
2018-03-15T15:13:57.901Z,5.10
2018-03-15T15:16:31.436Z,5.33
2018-03-15T15:19:05.064Z,4.20
2018-03-15T15:21:38.742Z,4.97
2018-03-15T15:24:12.451Z,4.57
2018-03-15T15:26:45.929Z,4.37
2018-03-15T15:29:19.514Z,3.90
2018-03-15T15:31:53.058Z,4.17
2018-03-15T15:34:26.765Z,4.40
2018-03-15T15:37:00.481Z,4.57
2018-03-15T15:39:34.088Z,4.70
2018-03-15T15:42:07.609Z,4.90
2018-03-15T15:44:41.231Z,4.57
2018-03-15T15:47:14.918Z,4.83
2018-03-15T15:49:48.460Z,4.93
2018-03-15T15:52:22.103Z,4.83
2018-03-15T15:54:55.921Z,4.57
2018-03-15T15:57:29.446Z,5.33
2018-03-15T16:00:03.147Z,5.07
2018-03-15T16:02:36.893Z,4.60
2018-03-15T16:05:10.398Z,4.63
2018-03-15T16:07:44.113Z,4.30
2018-03-15T16:10:17.915Z,4.73
2018-03-15T16:12:51.454Z,4.87
2018-03-15T16:15:25.206Z,4.80
2018-03-15T16:17:58.704Z,4.43
2018-03-15T16:20:32.280Z,4.40
2018-03-15T16:23:06.029Z,4.30
2018-03-15T16:25:39.791Z,4.73
2018-03-15T16:28:13.356Z,4.20
2018-03-15T16:30:46.873Z,4.60
2018-03-15T16:33:20.580Z,3.70
2018-03-15T16:35:54.226Z,4.03
2018-03-15T16:38:27.723Z,4.33
2018-03-15T16:41:01.477Z,3.90
2018-03-15T16:43:35.044Z,4.03
2018-03-15T16:46:08.812Z,3.53
2018-03-15T16:48:42.286Z,3.57
2018-03-15T16:51:15.860Z,4.00
2018-03-15T16:53:49.428Z,3.47
2018-03-15T16:56:22.934Z,3.73
2018-03-15T16:58:56.512Z,4.00
2018-03-15T17:01:30.256Z,4.23
2018-03-15T17:04:03.792Z,3.83
2018-03-15T17:06:37.514Z,3.90
2018-03-15T17:09:11.236Z,4.03
2018-03-15T17:11:45.305Z,4.67
2018-03-15T17:14:18.905Z,3.67
2018-03-15T17:16:52.514Z,4.40
2018-03-15T17:19:26.146Z,4.23
2018-03-15T17:21:59.710Z,3.77
2018-03-15T17:24:33.530Z,3.97
2018-03-15T17:33:17.993Z,3.80
2018-03-15T17:35:51.651Z,4.07
2018-03-15T17:38:25.449Z,4.03
2018-03-15T17:40:59.100Z,3.80
2018-03-15T17:43:32.618Z,4.03
2018-03-15T17:46:06.270Z,4.40
2018-03-15T17:48:39.935Z,4.00
2018-03-15T17:51:13.590Z,4.40
2018-03-15T17:53:47.169Z,4.00
2018-03-15T17:56:20.746Z,4.33
2018-03-15T17:58:54.357Z,5.00
2018-03-15T18:01:28.014Z,5.20
2018-03-15T18:04:01.639Z,5.30
2018-03-15T18:06:35.429Z,5.17
2018-03-15T18:09:09.005Z,4.90
2018-03-15T18:11:42.646Z,10.37
2018-03-15T18:14:16.250Z,4.87
2018-03-15T18:16:49.806Z,5.30
2018-03-15T18:19:23.409Z,7.10
2018-03-15T18:21:56.965Z,4.93
2018-03-15T18:24:30.518Z,5.07
2018-03-15T18:27:04.282Z,4.77
2018-03-15T18:29:38.082Z,4.83
2018-03-15T18:32:12.485Z,5.73
2018-03-15T18:34:46.024Z,5.13
2018-03-15T18:37:20.677Z,4.57
2018-03-15T18:39:54.230Z,5.67
2018-03-15T18:42:27.825Z,5.10
2018-03-15T18:45:01.410Z,5.17
2018-03-15T18:47:35.011Z,5.20
2018-03-15T18:50:08.498Z,4.97
2018-03-15T18:52:42.063Z,5.63
2018-03-15T18:55:15.594Z,5.87
2018-03-15T18:57:49.181Z,5.77
2018-03-15T19:00:22.960Z,6.70
2018-03-15T19:02:56.602Z,15.97
2018-03-15T19:05:30.188Z,6.20
2018-03-15T19:08:03.914Z,6.10
2018-03-15T19:10:37.506Z,5.47
2018-03-15T19:13:11.074Z,8.90
2018-03-15T19:15:44.862Z,11.03
2018-03-15T19:18:18.489Z,8.53
2018-03-15T19:20:52.092Z,18.13
2018-03-15T19:23:25.842Z,6.50
2018-03-15T19:25:59.382Z,6.80
2018-03-15T19:28:32.988Z,5.97
2018-03-15T19:31:06.894Z,6.37
2018-03-15T19:33:40.499Z,6.80
2018-03-15T19:36:14.265Z,7.60
2018-03-15T19:38:47.914Z,7.17
2018-03-15T19:41:21.669Z,7.70
2018-03-15T19:43:55.182Z,7.33
2018-03-15T19:46:28.868Z,7.17
2018-03-15T19:49:02.542Z,8.33
2018-03-15T19:51:36.119Z,8.37
2018-03-15T19:54:09.917Z,7.97
2018-03-15T19:56:43.643Z,8.80
2018-03-15T19:59:17.202Z,9.40
2018-03-15T20:01:50.918Z,8.30
2018-03-15T20:04:24.524Z,9.27
2018-03-15T20:06:58.087Z,10.17
2018-03-15T20:09:31.802Z,8.33
2018-03-15T20:12:05.646Z,9.33
2018-03-15T20:14:39.302Z,8.77
2018-03-15T20:17:26.832Z,9.10
2018-03-15T20:20:00.518Z,9.67
2018-03-15T20:22:39.786Z,9.53
2018-03-15T20:25:13.454Z,10.40
2018-03-15T20:27:53.017Z,9.70
2018-03-15T20:30:26.688Z,10.53
2018-03-15T20:33:06.065Z,10.87
2018-03-15T20:35:39.778Z,9.93
2018-03-15T20:38:13.361Z,9.63
2018-03-15T20:40:52.550Z,9.73
2018-03-15T20:43:26.231Z,10.60
2018-03-15T20:46:05.720Z,9.93
2018-03-15T20:48:45.283Z,11.00
2018-03-15T20:51:18.929Z,9.03
2018-03-15T20:53:52.622Z,10.60
2018-03-15T20:56:26.382Z,10.10
2018-03-15T20:58:59.924Z,10.33
2018-03-15T21:01:33.504Z,10.93
2018-03-15T21:04:07.105Z,11.30
2018-03-15T21:06:40.883Z,12.57
2018-03-15T21:09:14.434Z,11.73
2018-03-15T21:11:48.145Z,12.63
2018-03-15T21:14:21.954Z,13.70
2018-03-15T21:16:55.610Z,12.03
2018-03-15T21:19:29.189Z,11.50
2018-03-15T21:22:02.900Z,13.23
2018-03-15T21:24:36.545Z,11.77
2018-03-15T21:27:10.413Z,12.97
2018-03-15T21:29:43.914Z,12.50
2018-03-15T21:32:17.660Z,13.80
2018-03-15T21:34:51.184Z,12.67
2018-03-15T21:37:24.852Z,14.00
2018-03-15T21:39:58.437Z,12.57
2018-03-15T21:42:32.023Z,12.57
2018-03-15T21:45:05.582Z,12.90
2018-03-15T21:47:39.205Z,13.20
2018-03-15T21:50:12.985Z,13.77
2018-03-15T21:52:46.579Z,13.63
2018-03-15T21:55:20.192Z,14.07
2018-03-15T21:57:53.948Z,13.27
2018-03-15T22:00:27.758Z,13.47
2018-03-15T22:03:01.801Z,14.50
2018-03-15T22:05:35.412Z,14.43
2018-03-15T22:08:09.176Z,14.83
2018-03-15T22:10:42.998Z,13.53
2018-03-15T22:13:16.584Z,13.93
2018-03-15T22:15:50.349Z,13.80
2018-03-15T22:18:23.988Z,13.57
2018-03-15T22:20:57.668Z,13.17
2018-03-15T22:23:31.262Z,13.83
2018-03-15T22:26:04.887Z,13.47
2018-03-15T22:28:38.992Z,14.23
2018-03-15T22:31:12.539Z,13.83
2018-03-15T22:33:46.253Z,14.10
2018-03-15T22:36:20.049Z,13.10
2018-03-15T22:38:53.653Z,13.77
2018-03-15T22:41:27.195Z,15.63
2018-03-15T22:44:00.827Z,13.60
2018-03-15T22:46:34.444Z,13.93
2018-03-15T22:49:08.066Z,12.97
2018-03-15T22:51:41.692Z,14.00
2018-03-15T22:54:15.548Z,14.67
2018-03-15T22:56:49.239Z,13.57
2018-03-15T22:59:23.032Z,14.00
2018-03-15T23:01:56.803Z,14.57
2018-03-15T23:04:30.412Z,14.57
2018-03-15T23:07:04.225Z,13.63
2018-03-15T23:09:37.854Z,15.87
2018-03-15T23:12:11.550Z,13.70
2018-03-15T23:14:45.179Z,14.70
2018-03-15T23:17:18.765Z,15.37
2018-03-15T23:19:52.447Z,13.97
2018-03-15T23:22:25.958Z,15.10
2018-03-15T23:24:59.774Z,14.30
2018-03-15T23:27:33.468Z,13.13
2018-03-15T23:30:07.000Z,16.13
2018-03-15T23:32:40.703Z,14.23
2018-03-15T23:35:14.281Z,15.87
2018-03-15T23:37:47.970Z,15.70
2018-03-15T23:40:21.993Z,16.43
2018-03-15T23:42:56.155Z,16.07
2018-03-15T23:45:29.864Z,15.40
2018-03-15T23:48:03.452Z,15.87
2018-03-15T23:50:37.323Z,16.10
2018-03-15T23:53:11.080Z,16.70
2018-03-15T23:55:44.662Z,14.60
2018-03-15T23:58:18.538Z,15.13
